WEATHER DATA

YESTERDAY
Time Temp. Dewp. Hum. Wind dir Wind speed Wind gust Bar. 1h Prec. 24h Prec.
00:17 6.7 0.2 63 191 1.1 2.2 1026.4 0.0000 0.0000
00:27 6.5 0 63 190 1.4 2.5 1026.4 0.0000 0.0000
00:37 6.3 0 64 185 1.4 2.8 1026.3 0.0000 0.0000
00:46 6.1 -0.2 64 190 1.4 2.5 1026.3 0.0000 0.0000
00:57 6 -0.1 65 212 1.1 3.6 1026.4 0.0000 0.0000
01:07 5.9 -0.1 65 205 1.1 1.9 1026.3 0.0000 0.0000
01:17 5.8 -0.2 65 194 1.4 2.8 1026.2 0.0000 0.0000
01:27 5.7 -0.3 65 194 1.4 2.8 1026.4 0.0000 0.0000
01:37 5.5 -0.3 66 190 1.4 2.5 1026.4 0.0000 0.0000
01:47 5.4 -0.4 66 192 1.1 2.5 1026.4 0.0000 0.0000
01:57 5.2 -0.6 66 194 1.4 2.5 1026.4 0.0000 0.0000
02:08 5.1 -0.5 67 190 1.4 2.8 1026.5 0.0000 0.0000
02:17 5.1 -0.5 67 193 1.4 3.6 1026.7 0.0000 0.0000
02:27 5 -0.5 67 181 1.4 3.6 1026.5 0.0000 0.0000
02:38 4.9 -0.4 68 186 1.4 2.8 1026.7 0.0000 0.0000
02:48 4.8 -0.5 68 195 1.1 2.8 1026.7 0.0000 0.0000
02:57 4.7 -0.6 68 195 1.4 2.2 1026.5 0.0000 0.0000
03:07 4.6 -0.7 68 190 1.4 2.5 1026.5 0.0000 0.0000
03:18 4.5 -0.6 69 186 1.4 3.6 1026.5 0.0000 0.0000
03:28 4.5 -0.6 69 190 1.4 2.5 1026.4 0.0000 0.0000
03:37 4.4 -0.7 69 194 1.4 2.8 1026.4 0.0000 0.0000
03:48 4.4 -0.7 69 214 1.1 1.9 1026.3 0.0000 0.0000
03:58 4.3 -0.6 70 190 1.1 2.5 1026.2 0.0000 0.0000
04:08 4.3 -0.6 70 191 1.4 2.8 1026.2 0.0000 0.0000
04:17 4.2 -0.7 70 207 1.1 2.5 1026.2 0.0000 0.0000
04:28 4.1 -0.8 70 191 1.4 2.8 1026.2 0.0000 0.0000
04:38 4 -0.9 70 191 1.4 2.8 1026 0.0000 0.0000
04:48 3.9 -0.8 71 187 1.4 2.8 1026.1 0.0000 0.0000
04:58 3.7 -0.9 71 194 1.4 3.3 1026.1 0.0000 0.0000
05:08 3.6 -1 71 188 1.1 2.2 1026.2 0.0000 0.0000
05:18 3.5 -1.1 71 191 1.4 2.5 1026 0.0000 0.0000
05:28 3.4 -1 72 190 1.4 3.3 1026 0.0000 0.0000
05:39 3.3 -0.9 73 184 1.4 3.3 1026.1 0.0000 0.0000
05:48 3.2 -1 73 195 1.4 3.3 1026 0.0000 0.0000
05:58 3.2 -1 73 186 1.9 2.8 1025.9 0.0000 0.0000
06:09 3.2 -1 73 185 1.4 2.5 1025.9 0.0000 0.0000
06:19 3.2 -1.2 72 189 1.4 3.3 1025.9 0.0000 0.0000
06:29 3.1 -1.3 72 173 1.4 3.9 1025.8 0.0000 0.0000
06:44 3 -1.2 73 182 1.4 2.2 1025.6 0.0000 0.0000
06:53 2.9 -1.3 73 198 1.4 2.8 1025.7 0.0000 0.0000
07:02 2.9 -1.3 73 188 1.4 2.5 1025.7 0.0000 0.0000
07:13 2.8 -1.4 73 182 1.4 2.8 1025.9 0.0000 0.0000
07:23 2.7 -1.3 74 182 1.9 3.3 1025.8 0.0000 0.0000
07:33 2.6 -1.4 74 185 1.4 3.3 1025.6 0.0000 0.0000
07:43 2.6 -1.2 75 186 1.4 3.3 1025.9 0.0000 0.0000
07:53 2.5 -1.3 75 188 1.9 4.4 1026 0.0000 0.0000
08:03 2.5 -1.3 75 181 1.4 2.5 1026.1 0.0000 0.0000
08:13 2.5 -1.3 75 183 1.4 3.3 1026.1 0.0000 0.0000
08:24 2.6 -1.2 75 197 1.4 3.3 1026 0.0000 0.0000
08:33 2.7 -1.1 75 195 1.4 2.8 1026 0.0000 0.0000
08:43 2.9 -1 75 189 1.1 2.8 1025.8 0.0000 0.0000
08:53 3.1 -1 74 181 1.9 2.8 1025.8 0.0000 0.0000
09:04 3.3 -0.8 74 181 1.1 2.5 1025.7 0.0000 0.0000
09:13 3.5 -0.6 74 178 1.1 2.8 1025.6 0.0000 0.0000
09:23 3.8 -0.5 73 182 1.1 2.5 1025.6 0.0000 0.0000
09:34 4 -0.3 73 164 1.1 2.5 1025.7 0.0000 0.0000
09:44 4.3 -0.1 73 190 0.8 2.5 1025.5 0.0000 0.0000
09:54 4.7 0.1 72 251 0.8 2.2 1025.5 0.0000 0.0000
10:03 5 0.2 71 206 1.1 2.5 1025.6 0.0000 0.0000
10:14 5.4 0.2 69 193 1.1 2.2 1025.5 0.0000 0.0000
10:24 5.7 0.5 69 214 0.8 2.5 1025.4 0.0000 0.0000
10:34 6.1 0.6 68 191 1.1 2.5 1025.2 0.0000 0.0000
10:45 6.5 0.6 66 194 1.1 2.8 1025.1 0.0000 0.0000
10:54 6.8 0.7 65 162 1.1 2.5 1024.9 0.0000 0.0000
11:04 7.2 0.9 64 175 1.1 2.2 1025 0.0000 0.0000
11:14 7.5 1.1 64 187 1.1 2.8 1024.8 0.0000 0.0000
11:25 8 1.4 63 195 0.8 2.5 1024.9 0.0000 0.0000
11:35 8.3 1.5 62 171 1.1 2.5 1024.7 0.0000 0.0000
11:44 8.7 1.6 61 185 1.1 2.8 1024.5 0.0000 0.0000
11:55 9.1 1.8 60 192 1.1 2.8 1024.4 0.0000 0.0000
12:05 9.5 1.9 59 189 0.8 2.2 1024.4 0.0000 0.0000
12:15 9.9 2.3 59 186 1.1 2.2 1024.2 0.0000 0.0000
12:24 10.2 2.1 57 210 1.1 2.2 1023.9 0.0000 0.0000
12:35 10.6 2.2 56 165 1.1 2.5 1023.9 0.0000 0.0000
12:45 10.9 2.5 56 225 1.1 2.2 1023.9 0.0000 0.0000
12:55 11.3 2.3 54 206 1.1 2.2 1023.9 0.0000 0.0000
13:05 11.6 2.6 54 165 0.8 2.5 1023.6 0.0000 0.0000
13:15 11.9 2.4 52 140 0.8 2.2 1023.4 0.0000 0.0000
13:25 12.3 2.7 52 167 0.8 1.9 1023.3 0.0000 0.0000
13:35 12.5 2.9 52 158 0.8 1.9 1023.2 0.0000 0.0000
13:46 12.8 2.6 50 139 0.8 1.9 1022.8 0.0000 0.0000
13:56 13 3.1 51 135 0.8 1.4 1022.7 0.0000 0.0000
14:05 13.2 3.3 51 135 0.3 1.4 1022.6 0.0000 0.0000
14:16 13.6 3.1 49 151 0.3 1.9 1022.4 0.0000 0.0000
14:26 13.7 2.6 47 161 0.8 2.2 1022.3 0.0000 0.0000
14:36 13.9 2.2 45 104 0.8 2.2 1022.3 0.0000 0.0000
14:45 14.2 2.4 45 176 0.8 1.9 1022.1 0.0000 0.0000
14:56 14.4 2.6 45 149 0.8 1.9 1022.1 0.0000 0.0000
15:06 14.6 3.7 48 75 1.1 2.2 1022.1 0.0000 0.0000
15:16 14.8 4.2 49 5 0.8 2.2 1022 0.0000 0.0000
15:26 14.9 4.3 49 6 0.8 2.2 1022.1 0.0000 0.0000
15:36 14.9 4 48 333 0.8 2.5 1022 0.0000 0.0000
15:46 15 2.9 44 18 0.8 2.2 1022.1 0.0000 0.0000
15:56 15.1 2.9 44 0 1.1 2.5 1022 0.0000 0.0000
16:07 15.1 3.3 45 11 0.8 1.9 1022 0.0000 0.0000
16:17 15.1 2.9 44 346 0.8 1.9 1022 0.0000 0.0000
16:26 15.1 2.6 43 358 1.4 2.8 1022 0.0000 0.0000
16:37 15 2.9 44 355 1.1 2.8 1022 0.0000 0.0000
16:47 14.9 2.4 43 337 1.1 3.3 1022 0.0000 0.0000
16:57 14.7 2.6 44 315 0.8 1.9 1022.1 0.0000 0.0000
17:06 14.5 2.4 44 345 0.8 2.5 1022.1 0.0000 0.0000
17:17 14.3 2.8 46 308 0.8 1.9 1022.2 0.0000 0.0000
17:27 14.1 2.7 46 195 0.8 1.9 1022.3 0.0000 0.0000
17:37 13.9 2.5 46 235 0.8 2.5 1022.2 0.0000 0.0000
17:47 13.6 2.5 47 200 1.1 1.9 1022.2 0.0000 0.0000
17:57 13.5 2.1 46 175 1.1 3.3 1022.2 0.0000 0.0000
18:07 13.2 2.1 47 184 0.8 1.9 1022.3 0.0000 0.0000
18:17 12.9 2.5 49 169 1.1 1.9 1022.4 0.0000 0.0000
18:28 12.6 2.2 49 171 1.1 1.9 1022.4 0.0000 0.0000
18:38 12.4 2.3 50 173 1.1 1.9 1022.4 0.0000 0.0000
18:47 12.2 2.1 50 185 0.8 1.4 1022.6 0.0000 0.0000
18:57 11.9 1.8 50 189 1.1 2.2 1022.6 0.0000 0.0000
19:08 11.8 2 51 185 0.8 1.9 1022.8 0.0000 0.0000
19:18 11.5 1.7 51 180 0.8 1.9 1022.8 0.0000 0.0000
19:27 11.4 1.9 52 181 0.8 1.9 1023.2 0.0000 0.0000
19:38 11.2 2 53 204 0.8 1.1 1023 0.0000 0.0000
19:48 10.9 1.7 53 192 0.8 1.1 1023.2 0.0000 0.0000
19:58 10.6 1.7 54 204 0.8 1.9 1023.2 0.0000 0.0000
20:08 10.4 1.5 54 186 0.8 1.9 1023.2 0.0000 0.0000
20:18 10.2 1.6 55 225 0.8 1.9 1023.2 0.0000 0.0000
20:28 9.8 1.2 55 225 1.1 2.2 1023.5 0.0000 0.0000
20:38 9.6 1.3 56 218 0.8 1.4 1023.5 0.0000 0.0000
20:49 9.3 1.2 57 284 0.8 1.9 1023.6 0.0000 0.0000
20:58 9.1 1 57 204 0.8 1.4 1023.6 0.0000 0.0000
21:08 8.8 1 58 191 0.8 1.4 1023.7 0.0000 0.0000
21:18 8.6 1 59 218 0.8 1.4 1023.6 0.0000 0.0000
21:29 8.3 1 60 193 0.8 1.4 1023.7 0.0000 0.0000
21:39 8 0.7 60 194 0.8 1.4 1023.7 0.0000 0.0000
21:48 7.8 0.8 61 201 1.1 1.9 1023.8 0.0000 0.0000
21:59 7.5 0.7 62 193 1.1 1.9 1023.7 0.0000 0.0000
22:09 7.3 0.7 63 193 1.1 1.9 1023.8 0.0000 0.0000
22:19 7.1 0.8 64 186 1.1 1.9 1023.7 0.0000 0.0000
22:29 6.9 0.8 65 200 1.1 1.9 1023.6 0.0000 0.0000
22:39 6.7 0.6 65 180 1.1 1.9 1023.7 0.0000 0.0000
22:49 6.5 0.6 66 204 1.1 1.9 1023.7 0.0000 0.0000
22:59 6.4 0.5 66 191 1.1 2.5 1023.7 0.0000 0.0000
23:10 6.3 0.4 66 176 1.4 2.8 1023.6 0.0000 0.0000
23:19 6.2 0.5 67 174 1.1 2.5 1023.7 0.0000 0.0000
23:29 6.1 0.4 67 192 1.1 1.9 1023.8 0.0000 0.0000
23:39 6.1 0.4 67 175 1.1 2.2 1023.7 0.0000 0.0000
23:50 6 0.5 68 198 0.8 1.9 1023.9 0.0000 0.0000

DAY STATISTIC

2019-02-18
TEMPERATURE
AVERAGE
8.0
HIGH
15.1
15:56
LOW
2.5
07:53
PRESSURE
AVERAGE
1024.4
HIGH
1026.7
02:17
LOW
1022.0
15:16
DEWPOINT
AVERAGE
0.8
HIGH
4.3
15:26
LOW
-1.4
07:13
HUMIDITY
AVERAGE
61
HIGH
75
07:43
LOW
43
16:26
WIND SPEED
AVERAGE
1.1
HIGH
1.9
05:58
WIND GUST
AVERAGE
2.4
HIGH
4.4
07:53
WIND DIRECTION
PREVAILING
S
73.8%
N
6.4
NE
0.0
E
1.4
SE
4.3
S
73.8
SW
9.9
W
1.4
NW
2.8
PRECIPITATION
RAIN HOUR
0.0
RAIN DAY
0.0
TEMPERATURE (°C)
LOW
2.5
HIGH
15.1
AVERAGE
8.0
PRESSURE (hpa)
LOW
1022.0
HIGH
1026.7
AVERAGE
1024.4
DEVICE